createdAt,value
2018-05-09T00:00:07.268Z,8.07
2018-05-09T00:02:36.247Z,7.97
2018-05-09T00:05:05.274Z,9.13
2018-05-09T00:07:34.247Z,8.70
2018-05-09T00:10:03.212Z,8.60
2018-05-09T00:12:32.232Z,9.00
2018-05-09T00:15:01.200Z,9.17
2018-05-09T00:17:30.171Z,8.87
2018-05-09T00:19:59.146Z,8.97
2018-05-09T00:22:28.111Z,9.37
2018-05-09T00:24:57.122Z,9.47
2018-05-09T00:27:26.107Z,8.73
2018-05-09T00:29:55.084Z,8.73
2018-05-09T00:32:24.048Z,9.03
2018-05-09T00:34:53.267Z,8.80
2018-05-09T00:37:22.279Z,8.50
2018-05-09T00:39:51.226Z,8.53
2018-05-09T00:42:20.211Z,8.50
2018-05-09T00:44:49.176Z,9.50
2018-05-09T00:47:18.165Z,9.33
2018-05-09T00:49:47.163Z,8.93
2018-05-09T00:52:16.152Z,9.20
2018-05-09T00:54:45.116Z,8.67
2018-05-09T00:57:14.122Z,9.43
2018-05-09T00:59:43.107Z,8.83
2018-05-09T01:02:12.082Z,9.13
2018-05-09T01:04:41.089Z,9.53
2018-05-09T01:07:10.083Z,9.10
2018-05-09T01:09:39.065Z,9.70
2018-05-09T01:12:08.038Z,9.83
2018-05-09T01:14:37.002Z,10.10
2018-05-09T01:17:06.016Z,10.37
2018-05-09T01:19:35.069Z,11.37
2018-05-09T01:22:03.993Z,10.67
2018-05-09T01:24:32.958Z,11.00
2018-05-09T01:27:01.954Z,11.20
2018-05-09T01:29:30.986Z,10.73
2018-05-09T01:31:59.979Z,10.63
2018-05-09T01:34:28.958Z,10.83
2018-05-09T01:36:57.931Z,11.17
2018-05-09T01:39:26.928Z,12.47
2018-05-09T01:41:55.948Z,12.17
2018-05-09T01:44:24.933Z,12.27
2018-05-09T01:46:53.899Z,13.03
2018-05-09T01:49:22.892Z,12.07
2018-05-09T01:51:51.854Z,12.70
2018-05-09T01:54:20.857Z,12.87
2018-05-09T01:56:50.068Z,11.87
2018-05-09T01:59:19.043Z,12.83
2018-05-09T02:01:48.010Z,13.83
2018-05-09T02:04:16.977Z,14.37
2018-05-09T02:06:46.010Z,14.40
2018-05-09T02:09:14.973Z,14.17
2018-05-09T02:11:43.944Z,15.27
2018-05-09T02:14:12.898Z,14.70
2018-05-09T02:16:41.861Z,15.17
2018-05-09T02:19:10.874Z,15.03
2018-05-09T02:21:39.877Z,14.63
2018-05-09T02:24:08.969Z,16.10
2018-05-09T02:26:37.867Z,13.03
2018-05-09T02:29:06.838Z,14.17
2018-05-09T02:31:35.839Z,14.67
2018-05-09T02:34:04.831Z,14.93
2018-05-09T02:36:33.820Z,14.17
2018-05-09T02:39:02.787Z,14.63
2018-05-09T02:41:31.781Z,14.73
2018-05-09T02:44:00.823Z,15.47
2018-05-09T02:46:30.108Z,15.30
2018-05-09T02:48:59.080Z,16.03
2018-05-09T02:51:28.051Z,16.10
2018-05-09T02:53:57.023Z,15.47
2018-05-09T02:56:26.035Z,15.03
2018-05-09T02:58:55.005Z,14.20
2018-05-09T03:01:24.044Z,14.57
2018-05-09T03:03:53.046Z,14.77
2018-05-09T03:06:22.024Z,15.50
2018-05-09T03:08:51.069Z,15.60
2018-05-09T03:11:20.043Z,15.00
2018-05-09T03:13:49.007Z,15.07
2018-05-09T03:16:17.971Z,15.63
2018-05-09T03:18:46.935Z,15.47
2018-05-09T03:21:16.780Z,15.73
2018-05-09T03:23:45.741Z,15.10
2018-05-09T03:26:14.741Z,14.90
2018-05-09T03:28:43.727Z,14.80
2018-05-09T03:31:12.692Z,14.57
2018-05-09T03:33:41.716Z,16.20
2018-05-09T03:36:10.673Z,15.80
2018-05-09T03:38:39.634Z,14.17
2018-05-09T03:41:08.603Z,15.70
2018-05-09T03:43:37.583Z,14.53
2018-05-09T03:46:06.599Z,15.37
2018-05-09T03:48:35.580Z,14.33
2018-05-09T03:51:04.565Z,14.50
2018-05-09T03:53:33.548Z,14.83
2018-05-09T03:56:02.534Z,14.97
2018-05-09T03:58:31.544Z,13.37
2018-05-09T04:01:00.511Z,15.30
2018-05-09T04:03:35.415Z,15.40
2018-05-09T04:08:37.204Z,14.37
2018-05-09T04:11:06.165Z,14.27
2018-05-09T04:13:35.146Z,13.33
2018-05-09T04:16:04.138Z,14.37
2018-05-09T04:18:33.122Z,14.53
2018-05-09T04:21:02.126Z,15.17
2018-05-09T04:23:31.097Z,14.57
2018-05-09T04:26:00.066Z,14.03
2018-05-09T04:28:29.032Z,13.57
2018-05-09T04:30:58.035Z,13.67
2018-05-09T04:33:26.993Z,13.77
2018-05-09T04:35:55.965Z,13.07
2018-05-09T04:38:25.016Z,12.77
2018-05-09T04:40:54.003Z,13.13
2018-05-09T04:43:23.014Z,13.50
2018-05-09T04:45:51.998Z,12.30
2018-05-09T04:48:20.977Z,12.60
2018-05-09T04:50:49.939Z,12.97
2018-05-09T04:53:18.929Z,13.77
2018-05-09T04:55:47.954Z,12.83
2018-05-09T04:58:16.920Z,12.53
2018-05-09T05:00:45.896Z,12.13
2018-05-09T05:03:14.874Z,11.07
2018-05-09T05:05:43.867Z,11.80
2018-05-09T05:08:12.874Z,12.03
2018-05-09T05:10:41.841Z,13.27
2018-05-09T05:13:10.817Z,11.63
2018-05-09T05:15:39.815Z,13.17
2018-05-09T05:18:08.806Z,12.50
2018-05-09T05:20:37.869Z,12.90
2018-05-09T05:23:06.839Z,11.70
2018-05-09T05:25:35.857Z,12.73
2018-05-09T05:28:04.853Z,11.60
2018-05-09T05:30:33.826Z,11.10
2018-05-09T05:33:02.812Z,10.27
2018-05-09T05:35:31.775Z,12.30
2018-05-09T05:38:00.766Z,11.33
2018-05-09T05:40:29.723Z,12.17
2018-05-09T05:42:58.670Z,10.50
2018-05-09T05:45:27.634Z,10.73
2018-05-09T05:47:56.611Z,10.93
2018-05-09T05:50:25.606Z,10.23
2018-05-09T05:52:54.567Z,10.37
2018-05-09T05:55:23.532Z,10.17
2018-05-09T05:57:52.500Z,10.40
2018-05-09T06:00:21.442Z,9.73
2018-05-09T06:02:50.437Z,9.50
2018-05-09T06:05:19.386Z,9.70
2018-05-09T06:07:48.334Z,10.27
2018-05-09T06:10:17.285Z,9.83
2018-05-09T06:12:46.242Z,9.27
2018-05-09T06:15:15.222Z,8.63
2018-05-09T06:17:44.183Z,8.07
2018-05-09T06:20:13.115Z,9.23
2018-05-09T06:22:42.062Z,9.97
2018-05-09T06:25:11.087Z,9.27
2018-05-09T06:27:40.163Z,8.80
2018-05-09T06:30:09.162Z,9.40
2018-05-09T06:32:38.639Z,9.17
2018-05-09T06:35:07.630Z,9.73
2018-05-09T06:37:36.677Z,10.00
2018-05-09T06:40:05.767Z,9.40
2018-05-09T06:42:34.939Z,9.23
2018-05-09T06:45:03.943Z,8.90
2018-05-09T06:47:32.919Z,8.93
2018-05-09T06:50:01.894Z,9.33
2018-05-09T06:52:30.880Z,9.27
2018-05-09T06:54:59.822Z,9.30
2018-05-09T06:57:28.787Z,9.17
2018-05-09T06:59:57.764Z,9.17
2018-05-09T07:02:26.727Z,8.90
2018-05-09T07:04:55.730Z,8.37
2018-05-09T07:07:24.669Z,8.80
2018-05-09T07:09:53.619Z,8.17
2018-05-09T07:12:22.674Z,7.63
2018-05-09T07:14:51.640Z,7.90
2018-05-09T07:17:20.632Z,7.97
2018-05-09T07:19:49.575Z,8.67
2018-05-09T07:22:18.543Z,8.03
2018-05-09T07:24:47.539Z,7.83
2018-05-09T07:27:16.479Z,7.73
2018-05-09T07:29:45.473Z,8.00
2018-05-09T07:32:14.436Z,8.17
2018-05-09T07:34:43.445Z,8.10
2018-05-09T07:37:12.374Z,7.67
2018-05-09T07:39:41.318Z,7.90
2018-05-09T07:42:10.360Z,8.50
2018-05-09T07:44:39.297Z,6.93
2018-05-09T07:47:08.256Z,7.90
2018-05-09T07:49:37.211Z,8.33
2018-05-09T07:52:06.154Z,8.77
2018-05-09T07:54:35.102Z,8.37
2018-05-09T07:57:04.083Z,8.10
2018-05-09T07:59:33.025Z,7.53
2018-05-09T08:02:02.049Z,8.40
2018-05-09T08:04:30.987Z,7.77
2018-05-09T08:06:59.928Z,8.03
2018-05-09T08:09:28.926Z,7.73
2018-05-09T08:11:57.876Z,7.47
2018-05-09T08:14:26.818Z,7.27
2018-05-09T08:16:55.775Z,7.53
2018-05-09T08:19:24.733Z,8.10
2018-05-09T08:21:53.676Z,7.60
2018-05-09T08:24:22.618Z,7.80
2018-05-09T08:26:51.627Z,7.40
2018-05-09T08:29:20.583Z,7.67
2018-05-09T08:31:49.525Z,7.27
2018-05-09T08:34:18.469Z,6.97
2018-05-09T08:36:47.437Z,7.40
2018-05-09T08:39:16.407Z,7.13
2018-05-09T08:41:45.367Z,7.47
2018-05-09T08:44:14.329Z,7.00
2018-05-09T08:46:43.274Z,7.07
2018-05-09T08:49:12.319Z,6.70
2018-05-09T08:51:41.264Z,6.67
2018-05-09T08:54:10.214Z,6.23
2018-05-09T08:56:39.236Z,6.90
2018-05-09T08:59:08.143Z,5.70
2018-05-09T09:01:37.122Z,6.30
2018-05-09T09:04:06.075Z,6.63
2018-05-09T09:06:35.013Z,6.60
2018-05-09T09:09:03.953Z,7.10
2018-05-09T09:11:32.944Z,6.00
2018-05-09T09:14:01.886Z,6.33
2018-05-09T09:16:30.823Z,6.07
2018-05-09T09:18:59.769Z,6.50
2018-05-09T09:21:28.730Z,6.33
2018-05-09T09:23:57.725Z,6.30
2018-05-09T09:26:26.669Z,6.63
2018-05-09T09:28:55.622Z,6.07
2018-05-09T09:31:24.567Z,6.27
2018-05-09T09:33:53.527Z,5.97
2018-05-09T09:36:22.515Z,5.47
2018-05-09T09:38:51.482Z,6.33
2018-05-09T09:41:20.433Z,5.67
2018-05-09T09:43:49.409Z,5.53
2018-05-09T09:46:18.349Z,6.10
2018-05-09T09:48:47.294Z,6.00
2018-05-09T09:51:16.250Z,5.23
2018-05-09T09:53:45.256Z,5.43
2018-05-09T09:56:14.202Z,5.30
2018-05-09T09:58:43.169Z,5.17
2018-05-09T10:01:12.134Z,4.90
2018-05-09T10:03:41.072Z,5.10
2018-05-09T10:06:10.042Z,5.20
2018-05-09T10:08:39.001Z,5.20
2018-05-09T10:11:07.992Z,5.40
2018-05-09T10:13:36.925Z,5.53
2018-05-09T10:16:05.987Z,5.23
2018-05-09T10:18:34.841Z,5.53
2018-05-09T10:21:03.874Z,5.60
2018-05-09T10:23:32.810Z,5.10
2018-05-09T10:26:01.745Z,5.23
2018-05-09T10:28:30.692Z,5.50
2018-05-09T10:30:59.640Z,5.33
2018-05-09T10:33:28.603Z,6.17
2018-05-09T10:35:57.611Z,5.57
2018-05-09T10:38:26.599Z,6.00
2018-05-09T10:40:55.541Z,5.53
2018-05-09T10:43:24.507Z,5.60
2018-05-09T10:45:53.449Z,6.13
2018-05-09T10:48:22.418Z,6.13
2018-05-09T10:50:51.465Z,5.50
2018-05-09T10:53:20.510Z,5.63
2018-05-09T10:55:49.451Z,5.20
2018-05-09T10:58:18.411Z,5.30
2018-05-09T11:00:47.389Z,5.33
2018-05-09T11:03:16.360Z,4.60
2018-05-09T11:05:45.296Z,4.57
2018-05-09T11:08:14.247Z,4.70
2018-05-09T11:10:43.252Z,4.33
2018-05-09T11:13:12.197Z,4.60
2018-05-09T11:15:41.161Z,4.63
2018-05-09T11:18:10.188Z,4.97
2018-05-09T11:20:39.092Z,4.50
2018-05-09T11:23:08.087Z,4.77
2018-05-09T11:25:37.029Z,4.97
2018-05-09T11:28:05.981Z,4.90
2018-05-09T11:30:34.919Z,4.60
2018-05-09T11:33:03.871Z,5.00
2018-05-09T11:35:32.872Z,4.73
2018-05-09T11:38:01.826Z,4.50
2018-05-09T11:40:30.790Z,4.57
2018-05-09T11:42:59.754Z,4.23
2018-05-09T11:45:28.714Z,4.67
2018-05-09T11:47:57.715Z,4.77
2018-05-09T11:50:26.685Z,4.20
2018-05-09T11:52:55.669Z,3.97
2018-05-09T11:55:24.628Z,4.23
2018-05-09T11:57:53.580Z,4.23
2018-05-09T12:00:22.572Z,4.70
2018-05-09T12:02:51.551Z,4.50
2018-05-09T12:05:20.481Z,4.50
2018-05-09T12:07:50.167Z,4.30
2018-05-09T12:10:19.164Z,4.87
2018-05-09T12:12:48.132Z,4.30
2018-05-09T12:15:18.004Z,4.20
2018-05-09T12:17:46.986Z,4.97
2018-05-09T12:20:15.920Z,4.70
2018-05-09T12:22:44.857Z,4.30
2018-05-09T12:25:14.147Z,4.60
2018-05-09T12:27:43.091Z,4.13
2018-05-09T12:30:12.145Z,4.93
2018-05-09T12:32:41.094Z,4.47
2018-05-09T12:35:10.042Z,4.77
2018-05-09T12:37:38.989Z,4.37
2018-05-09T12:40:07.935Z,4.67
2018-05-09T12:42:36.958Z,5.03
2018-05-09T12:45:05.919Z,4.73
2018-05-09T12:47:35.272Z,4.57
2018-05-09T12:50:04.341Z,4.90
2018-05-09T12:52:33.269Z,4.90
2018-05-09T12:55:02.219Z,4.90
2018-05-09T12:57:31.171Z,4.77
2018-05-09T13:00:00.296Z,4.43
2018-05-09T13:02:29.263Z,4.87
2018-05-09T13:04:58.224Z,4.57
2018-05-09T13:07:27.313Z,5.27
2018-05-09T13:09:56.259Z,4.32
2018-05-09T13:12:25.300Z,4.30
2018-05-09T13:14:54.253Z,4.53
2018-05-09T13:17:23.193Z,4.30
2018-05-09T13:19:52.212Z,4.22
2018-05-09T13:22:21.159Z,4.60
2018-05-09T13:24:50.123Z,3.80
2018-05-09T13:27:19.053Z,4.40
2018-05-09T13:29:47.988Z,4.17
2018-05-09T13:32:17.086Z,4.57
2018-05-09T13:34:46.029Z,4.50
2018-05-09T13:37:14.978Z,4.53
2018-05-09T13:39:43.936Z,3.97
2018-05-09T13:42:12.887Z,4.40
2018-05-09T13:44:41.817Z,4.20
2018-05-09T13:47:10.763Z,3.60
2018-05-09T13:49:39.769Z,3.87
2018-05-09T13:52:09.265Z,4.40
2018-05-09T13:54:38.263Z,3.70
2018-05-09T13:57:07.215Z,3.27
2018-05-09T13:59:36.175Z,3.23
2018-05-09T14:02:05.114Z,3.60
2018-05-09T14:04:34.058Z,3.73
2018-05-09T14:07:03.050Z,4.07
2018-05-09T14:09:32.546Z,3.87
2018-05-09T14:12:02.202Z,3.73
2018-05-09T14:14:31.154Z,4.20
2018-05-09T14:17:00.098Z,4.00
2018-05-09T14:19:29.163Z,4.13
2018-05-09T14:21:58.276Z,4.10
2018-05-09T14:24:27.205Z,4.90
2018-05-09T14:26:56.145Z,4.83
2018-05-09T14:29:25.116Z,5.67
2018-05-09T14:31:57.088Z,5.30
2018-05-09T14:34:26.029Z,4.90
2018-05-09T14:36:54.969Z,4.40
2018-05-09T14:39:23.935Z,3.92
2018-05-09T14:41:52.890Z,3.87
2018-05-09T14:44:21.836Z,3.97
2018-05-09T14:46:50.777Z,4.15
2018-05-09T14:49:20.264Z,3.85
2018-05-09T14:51:49.208Z,4.05
2018-05-09T14:54:18.155Z,4.20
2018-05-09T14:56:47.131Z,3.87
2018-05-09T14:59:16.177Z,3.78
2018-05-09T15:01:45.175Z,4.28
2018-05-09T15:04:14.742Z,4.32
2018-05-09T15:06:43.679Z,4.47
2018-05-09T15:09:12.681Z,4.17
2018-05-09T15:11:41.615Z,4.73
2018-05-09T15:14:10.607Z,4.50
2018-05-09T15:16:39.572Z,4.70
2018-05-09T15:19:08.529Z,4.90
2018-05-09T15:21:37.490Z,5.27
2018-05-09T15:24:06.491Z,6.00
2018-05-09T15:26:35.460Z,6.50
2018-05-09T15:29:04.422Z,5.67
2018-05-09T15:31:33.382Z,5.43
2018-05-09T15:34:02.342Z,5.00
2018-05-09T15:36:31.357Z,4.43
2018-05-09T15:39:00.339Z,4.17
2018-05-09T15:41:29.287Z,3.97
2018-05-09T15:43:58.259Z,3.70
2018-05-09T15:46:27.240Z,3.80
2018-05-09T15:48:56.254Z,4.63
2018-05-09T15:51:25.209Z,4.30
2018-05-09T15:53:54.171Z,4.87
2018-05-09T15:56:23.114Z,5.03
2018-05-09T15:58:52.058Z,5.37
2018-05-09T16:01:21.046Z,5.30
2018-05-09T16:03:50.181Z,5.07
2018-05-09T16:06:19.132Z,5.60
2018-05-09T16:08:48.476Z,5.67
2018-05-09T16:11:17.413Z,5.17
2018-05-09T16:13:46.403Z,5.70
2018-05-09T16:16:15.383Z,6.07
2018-05-09T16:18:44.345Z,6.97
2018-05-09T16:21:13.368Z,6.10
2018-05-09T16:23:42.702Z,7.63
2018-05-09T16:26:11.688Z,6.77
2018-05-09T16:28:40.641Z,6.67
2018-05-09T16:31:09.594Z,6.50
2018-05-09T16:33:39.406Z,6.60
2018-05-09T16:36:08.428Z,6.50
2018-05-09T16:38:37.398Z,7.00
2018-05-09T16:41:06.365Z,6.63
2018-05-09T16:43:35.318Z,7.00
2018-05-09T16:46:04.271Z,7.50
2018-05-09T16:48:33.223Z,9.07
2018-05-09T16:51:02.217Z,9.53
2018-05-09T16:53:31.184Z,10.13
2018-05-09T16:56:01.269Z,9.20
2018-05-09T16:58:30.227Z,10.17
2018-05-09T17:00:59.178Z,9.50
2018-05-09T17:03:28.168Z,8.73
2018-05-09T17:05:57.121Z,10.70
2018-05-09T17:08:26.090Z,8.90
2018-05-09T17:10:55.051Z,8.33
2018-05-09T17:13:23.991Z,9.33
2018-05-09T17:15:52.978Z,9.50
2018-05-09T17:18:21.928Z,9.73
2018-05-09T17:20:50.880Z,9.20
2018-05-09T17:23:19.831Z,7.97
2018-05-09T17:25:48.791Z,7.33
2018-05-09T17:28:17.795Z,8.50
2018-05-09T17:30:46.782Z,7.27
2018-05-09T17:33:15.736Z,8.60
2018-05-09T17:35:44.700Z,9.70
2018-05-09T17:38:13.655Z,12.37
2018-05-09T17:40:42.638Z,11.77
2018-05-09T17:43:11.591Z,10.43
2018-05-09T17:45:40.546Z,8.80
2018-05-09T17:48:10.462Z,8.63
2018-05-09T17:50:39.431Z,8.53
2018-05-09T17:53:08.405Z,9.37
2018-05-09T17:55:37.347Z,8.97
2018-05-09T17:58:06.352Z,9.07
2018-05-09T18:00:35.316Z,10.53
2018-05-09T18:03:04.261Z,12.77
2018-05-09T18:05:33.257Z,11.57
2018-05-09T18:08:02.207Z,10.50
2018-05-09T18:10:31.156Z,13.07
2018-05-09T18:13:00.099Z,12.10
2018-05-09T18:15:29.047Z,11.47
2018-05-09T18:17:58.126Z,10.40
2018-05-09T18:20:27.065Z,11.07
2018-05-09T18:22:56.124Z,10.70
2018-05-09T18:25:25.080Z,11.83
2018-05-09T18:27:54.237Z,13.00
2018-05-09T18:30:23.229Z,12.10
2018-05-09T18:32:52.190Z,12.00
2018-05-09T18:35:21.149Z,16.10
2018-05-09T18:37:50.098Z,12.10
2018-05-09T18:40:19.099Z,9.53
2018-05-09T18:42:48.219Z,9.07
2018-05-09T18:45:17.163Z,9.20
2018-05-09T18:47:46.140Z,10.77
2018-05-09T18:50:15.093Z,9.43
2018-05-09T18:52:44.059Z,12.77
2018-05-09T18:55:13.058Z,14.13
2018-05-09T18:57:42.046Z,10.43
2018-05-09T19:00:10.996Z,13.10
2018-05-09T19:02:39.970Z,9.97
2018-05-09T19:05:08.922Z,14.37
2018-05-09T19:07:37.944Z,13.80
2018-05-09T19:10:06.895Z,11.30
2018-05-09T19:12:35.890Z,12.00
2018-05-09T19:15:04.833Z,10.27
2018-05-09T19:17:33.774Z,9.23
2018-05-09T19:20:02.758Z,5.83
2018-05-09T19:22:31.716Z,3.90
2018-05-09T19:25:00.701Z,4.97
2018-05-09T19:27:29.656Z,6.23
2018-05-09T19:29:58.610Z,7.43
2018-05-09T19:32:27.634Z,9.27
2018-05-09T19:34:56.589Z,9.77
2018-05-09T19:37:25.535Z,9.27
2018-05-09T19:39:54.478Z,10.67
2018-05-09T19:42:23.444Z,11.23
2018-05-09T19:44:52.428Z,15.33
2018-05-09T19:47:21.382Z,13.33
2018-05-09T19:49:50.345Z,11.90
2018-05-09T19:52:19.306Z,11.90
2018-05-09T19:54:48.258Z,11.90
2018-05-09T19:57:17.243Z,10.67
2018-05-09T19:59:46.204Z,13.47
2018-05-09T20:02:15.158Z,12.37
2018-05-09T20:04:44.431Z,12.53
2018-05-09T20:07:13.384Z,11.57
2018-05-09T20:09:43.273Z,11.30
2018-05-09T20:12:12.238Z,12.77
2018-05-09T20:14:42.047Z,10.43
2018-05-09T20:17:11.001Z,11.77
2018-05-09T20:19:39.954Z,12.93
2018-05-09T20:22:08.938Z,15.23
2018-05-09T20:24:37.880Z,15.20
2018-05-09T20:27:06.835Z,14.83
2018-05-09T20:29:35.821Z,15.00
2018-05-09T20:32:10.723Z,16.20
2018-05-09T20:34:39.674Z,17.63
2018-05-09T20:37:08.631Z,17.10
2018-05-09T20:39:37.663Z,18.23
2018-05-09T20:42:06.708Z,16.90
2018-05-09T20:44:35.640Z,16.73
2018-05-09T20:47:04.955Z,17.83
2018-05-09T20:49:33.920Z,19.27
2018-05-09T20:52:02.922Z,19.43
2018-05-09T20:54:32.802Z,19.50
2018-05-09T20:57:01.771Z,19.50
2018-05-09T20:59:31.401Z,19.83
2018-05-09T21:02:00.367Z,18.53
2018-05-09T21:04:29.373Z,18.50
2018-05-09T21:06:58.333Z,19.90
2018-05-09T21:12:08.429Z,19.77
2018-05-09T21:14:37.767Z,21.13
2018-05-09T21:17:06.798Z,22.17
2018-05-09T21:19:35.774Z,22.30
2018-05-09T21:22:04.738Z,21.27
2018-05-09T21:24:33.713Z,22.10
2018-05-09T21:27:02.788Z,20.80
2018-05-09T21:29:31.760Z,18.83
2018-05-09T21:32:00.730Z,17.07
2018-05-09T21:34:29.699Z,16.57
2018-05-09T21:36:58.687Z,16.80
2018-05-09T21:39:27.659Z,13.63
2018-05-09T21:41:56.677Z,13.27
2018-05-09T21:44:25.643Z,13.43
2018-05-09T21:46:54.653Z,12.93
2018-05-09T21:49:23.646Z,10.50
2018-05-09T21:51:52.627Z,9.67
2018-05-09T21:54:21.592Z,8.70
2018-05-09T21:56:50.591Z,10.57
2018-05-09T21:59:19.610Z,10.00
2018-05-09T22:01:48.594Z,10.40
2018-05-09T22:04:17.602Z,10.40
2018-05-09T22:06:46.561Z,10.63
2018-05-09T22:09:15.535Z,12.23
2018-05-09T22:11:44.517Z,9.90
2018-05-09T22:14:13.512Z,10.37
2018-05-09T22:16:42.510Z,11.70
2018-05-09T22:19:11.478Z,12.23
2018-05-09T22:21:40.443Z,11.27
2018-05-09T22:24:09.767Z,10.77
2018-05-09T22:26:38.734Z,11.43
2018-05-09T22:29:07.797Z,11.70
2018-05-09T22:31:36.780Z,11.17
2018-05-09T22:34:05.774Z,12.17
2018-05-09T22:36:34.756Z,12.60
2018-05-09T22:39:03.731Z,12.40
2018-05-09T22:41:32.746Z,12.80
2018-05-09T22:44:01.771Z,11.37
2018-05-09T22:46:30.757Z,11.83
2018-05-09T22:49:00.041Z,13.53
2018-05-09T22:51:29.028Z,12.60
2018-05-09T22:56:22.884Z,11.70
2018-05-09T22:58:51.863Z,12.27
2018-05-09T23:01:20.879Z,11.17
2018-05-09T23:03:49.832Z,11.43
2018-05-09T23:06:18.787Z,13.20
2018-05-09T23:08:47.765Z,12.23
2018-05-09T23:11:16.721Z,12.80
2018-05-09T23:13:45.730Z,12.37
2018-05-09T23:16:14.721Z,11.37
2018-05-09T23:18:43.709Z,13.27
2018-05-09T23:21:12.678Z,13.17
2018-05-09T23:23:41.646Z,12.27
2018-05-09T23:26:10.669Z,12.43
2018-05-09T23:28:39.675Z,11.30
2018-05-09T23:31:08.640Z,11.10
2018-05-09T23:33:37.601Z,12.27
2018-05-09T23:36:06.571Z,11.87
2018-05-09T23:38:35.589Z,12.13
2018-05-09T23:41:04.564Z,12.17
2018-05-09T23:43:33.530Z,11.77
2018-05-09T23:46:02.804Z,11.57
2018-05-09T23:48:31.784Z,12.00
2018-05-09T23:51:00.792Z,11.13
2018-05-09T23:53:29.762Z,11.60
2018-05-09T23:55:58.730Z,12.97
2018-05-09T23:58:27.686Z,11.93
